Time;durP1;ratioP1;P1;durP2;ratioP2;P2;SDS_P1;SDS_P2;PMS_P1;PMS_P2;Temp;Humidity;BMP_temperature;BMP_pressure;BME280_temperature;BME280_humidity;BME280_pressure;Samples;Min_cycle;Max_cycle;Signal;HPM_P1;HPM_P2
2022/07/20 00:00:46;;;;;;;;;;;;;;;;;;5056300;28;19909;-41
2022/07/20 00:03:11;;;;;;;;;;;;;;;;;;5056222;28;20343;-42
2022/07/20 00:05:37;;;;;;;;;;;;;;;;;;5055989;28;19940;-41
2022/07/20 00:08:02;;;;;;;;;;;;;;;;;;5055846;28;19948;-41
2022/07/20 00:13:11;;;;;;;;;;;;;;;;;;5056199;28;20383;-42
2022/07/20 00:15:36;;;;;;;;;;;;;;;;;;5056064;28;19913;-41
2022/07/20 00:18:01;;;;;;;;;;;;;;;;;;5055961;28;20387;-42
2022/07/20 00:20:26;;;;;;;;;;;;;;;;;;5055964;28;19952;-41
2022/07/20 00:22:51;;;;;;;;;;;;;;;;;;5055700;28;19916;-41
2022/07/20 00:25:16;;;;;;;;;;;;;;;;;;5055717;28;19919;-40
2022/07/20 00:27:41;;;;;;;;;;;;;;;;;;5055493;28;20388;-41
2022/07/20 00:30:06;;;;;;;;;;;;;;;;;;5055130;28;20356;-42
2022/07/20 00:32:32;;;;;;;;;;;;;;;;;;5055518;28;20283;-40
2022/07/20 00:34:57;;;;;;;;;;;;;;;;;;5055854;28;19917;-41
2022/07/20 00:37:22;;;;;;;;;;;;;;;;;;5055410;28;19913;-41
2022/07/20 00:39:48;;;;;;;;;;;;;;;;;;5055504;28;19909;-41
2022/07/20 00:42:13;;;;;;;;;;;;;;;;;;5055522;28;19971;-41
2022/07/20 00:44:38;;;;;;;;;;;;;;;;;;5055679;28;19950;-42
2022/07/20 00:47:03;;;;;;;;;;;;;;;;;;5055380;28;19998;-41
2022/07/20 00:49:28;;;;;;;;;;;;;;;;;;5055081;28;20042;-42
2022/07/20 00:51:53;;;;;;;;;;;;;;;;;;5055284;28;19916;-41
2022/07/20 00:54:18;;;;;;;;;;;;;;;;;;5055503;28;20363;-41
2022/07/20 00:56:43;;;;;;;;;;;;;;;;;;5055205;28;19948;-41
2022/07/20 00:59:09;;;;;;;;;;;;;;;;;;5055092;28;19913;-41
2022/07/20 01:01:34;;;;;;;;;;;;;;;;;;5054899;28;19909;-41
2022/07/20 01:03:59;;;;;;;;;;;;;;;;;;5055017;28;19912;-41
2022/07/20 01:06:24;;;;;;;;;;;;;;;;;;5055059;28;20356;-41
2022/07/20 01:08:49;;;;;;;;;;;;;;;;;;5054925;28;19909;-40
2022/07/20 01:11:14;;;;;;;;;;;;;;;;;;5055172;28;20003;-41
2022/07/20 01:13:39;;;;;;;;;;;;;;;;;;5055057;28;20008;-41
2022/07/20 01:16:05;;;;;;;;;;;;;;;;;;5054572;28;19916;-41
2022/07/20 01:18:30;;;;;;;;;;;;;;;;;;5054973;28;19909;-41
2022/07/20 01:20:55;;;;;;;;;;;;;;;;;;5054965;28;19913;-41
2022/07/20 01:23:20;;;;;;;;;;;;;;;;;;5054770;28;19909;-42
2022/07/20 01:25:45;;;;;;;;;;;;;;;;;;5055042;28;19932;-41
2022/07/20 01:28:10;;;;;;;;;;;;;;;;;;5066343;22;19967;-41
2022/07/20 01:30:35;;;;;;;;;;;;;;;;;;5095177;28;20443;-42
2022/07/20 01:33:00;;;;;;;;;;;;;;;;;;5095125;28;19961;-42
2022/07/20 01:35:26;;;;;;;;;;;;;;;;;;5095075;28;20320;-40
2022/07/20 01:37:51;;;;;;;;;;;;;;;;;;5095228;28;19923;-40
2022/07/20 01:40:16;;;;;;;;;;;;;;;;;;5095271;28;19908;-41
2022/07/20 01:42:41;;;;;;;;;;;;;;;;;;5095178;28;19908;-40
2022/07/20 01:45:06;;;;;;;;;;;;;;;;;;5094949;28;19908;-41
2022/07/20 01:47:32;;;;;;;;;;;;;;;;;;5093760;28;19912;-41
2022/07/20 01:49:57;;;;;;;;;;;;;;;;;;5094959;28;19912;-41
2022/07/20 01:52:22;;;;;;;;;;;;;;;;;;5095190;28;19915;-40
2022/07/20 01:54:47;;;;;;;;;;;;;;;;;;5095068;28;19908;-41
2022/07/20 01:57:12;;;;;;;;;;;;;;;;;;5094808;28;19908;-41
2022/07/20 01:59:37;;;;;;;;;;;;;;;;;;5094627;28;19908;-41
2022/07/20 02:02:02;;;;;;;;;;;;;;;;;;5094610;28;19916;-42
2022/07/20 02:04:27;;;;;;;;;;;;;;;;;;5094962;28;19984;-41
2022/07/20 02:06:52;;;;;;;;;;;;;;;;;;5094874;28;19914;-42
2022/07/20 02:09:18;;;;;;;;;;;;;;;;;;5094701;28;19912;-41
2022/07/20 02:11:43;;;;;;;;;;;;;;;;;;5094699;28;19977;-42
2022/07/20 02:14:08;;;;;;;;;;;;;;;;;;5094762;28;20342;-41
2022/07/20 02:16:33;;;;;;;;;;;;;;;;;;5094777;28;19908;-42
2022/07/20 02:19:00;;;;;;;;;;;;;;;;;;5094655;28;19916;-40
2022/07/20 02:21:26;;;;;;;;;;;;;;;;;;5094844;28;20252;-40
2022/07/20 02:23:51;;;;;;;;;;;;;;;;;;5094431;28;19908;-41
2022/07/20 02:26:16;;;;;;;;;;;;;;;;;;5094209;28;19908;-41
2022/07/20 02:28:41;;;;;;;;;;;;;;;;;;5095482;28;20375;-40
2022/07/20 02:31:07;;;;;;;;;;;;;;;;;;5089139;28;19917;-42
2022/07/20 02:33:32;;;;;;;;;;;;;;;;;;5077729;28;19913;-41
2022/07/20 02:35:57;;;;;;;;;;;;;;;;;;5078122;28;19908;-42
2022/07/20 02:38:22;;;;;;;;;;;;;;;;;;5078034;28;20352;-41
2022/07/20 02:40:47;;;;;;;;;;;;;;;;;;5077919;28;19982;-40
2022/07/20 02:43:12;;;;;;;;;;;;;;;;;;5077990;28;19908;-41
2022/07/20 02:45:37;;;;;;;;;;;;;;;;;;5077897;28;19908;-41
2022/07/20 02:48:02;;;;;;;;;;;;;;;;;;5078017;28;19962;-43
2022/07/20 02:50:28;;;;;;;;;;;;;;;;;;5077843;28;20374;-40
2022/07/20 02:52:53;;;;;;;;;;;;;;;;;;5077755;28;19920;-41
2022/07/20 02:55:18;;;;;;;;;;;;;;;;;;5077555;28;19920;-41
2022/07/20 02:57:43;;;;;;;;;;;;;;;;;;5077773;28;19916;-42
2022/07/20 03:00:09;;;;;;;;;;;;;;;;;;5077485;28;19908;-41
2022/07/20 03:02:35;;;;;;;;;;;;;;;;;;5076293;28;19908;-41
2022/07/20 03:05:00;;;;;;;;;;;;;;;;;;5077617;28;19915;-40
2022/07/20 03:07:25;;;;;;;;;;;;;;;;;;5077488;28;19915;-40
2022/07/20 03:09:50;;;;;;;;;;;;;;;;;;5077481;28;19913;-40
2022/07/20 03:12:15;;;;;;;;;;;;;;;;;;5077336;28;20347;-41
2022/07/20 03:14:40;;;;;;;;;;;;;;;;;;5077775;28;19978;-41
2022/07/20 03:17:05;;;;;;;;;;;;;;;;;;5077716;28;19909;-41
2022/07/20 03:19:30;;;;;;;;;;;;;;;;;;5077317;28;20287;-41
2022/07/20 03:21:55;;;;;;;;;;;;;;;;;;5077143;28;19913;-42
2022/07/20 03:24:20;;;;;;;;;;;;;;;;;;5076972;28;19908;-41
2022/07/20 03:26:46;;;;;;;;;;;;;;;;;;5077123;28;19909;-40
2022/07/20 03:29:11;;;;;;;;;;;;;;;;;;5076886;28;20367;-41
2022/07/20 03:31:36;;;;;;;;;;;;;;;;;;5077154;28;19912;-41
2022/07/20 03:34:01;;;;;;;;;;;;;;;;;;5077075;28;19912;-42
2022/07/20 03:36:26;;;;;;;;;;;;;;;;;;5077587;28;19913;-42
2022/07/20 03:38:51;;;;;;;;;;;;;;;;;;5076768;28;19908;-40
2022/07/20 03:41:16;;;;;;;;;;;;;;;;;;5076896;28;19912;-41
2022/07/20 03:43:41;;;;;;;;;;;;;;;;;;5077138;28;19915;-40
2022/07/20 03:46:06;;;;;;;;;;;;;;;;;;5076924;28;19909;-41
2022/07/20 03:48:31;;;;;;;;;;;;;;;;;;5076990;28;19961;-41
2022/07/20 03:50:57;;;;;;;;;;;;;;;;;;5075375;28;19919;-40
2022/07/20 03:53:22;;;;;;;;;;;;;;;;;;5076695;28;20426;-42
2022/07/20 03:55:47;;;;;;;;;;;;;;;;;;5076727;28;19908;-40
2022/07/20 03:58:12;;;;;;;;;;;;;;;;;;5076782;28;19916;-42
2022/07/20 04:00:37;;;;;;;;;;;;;;;;;;5076512;28;19920;-42
2022/07/20 04:03:02;;;;;;;;;;;;;;;;;;5076506;28;20268;-41
2022/07/20 04:05:27;;;;;;;;;;;;;;;;;;5076675;28;20352;-41
2022/07/20 04:07:52;;;;;;;;;;;;;;;;;;5076635;28;20007;-41
2022/07/20 04:10:17;;;;;;;;;;;;;;;;;;5076264;28;19979;-41
2022/07/20 04:12:43;;;;;;;;;;;;;;;;;;5076278;28;19987;-41
2022/07/20 04:15:08;;;;;;;;;;;;;;;;;;5076386;28;19908;-41
2022/07/20 04:17:33;;;;;;;;;;;;;;;;;;5076313;28;19909;-40
2022/07/20 04:19:58;;;;;;;;;;;;;;;;;;5076563;28;19909;-41
2022/07/20 04:22:23;;;;;;;;;;;;;;;;;;5076436;28;19912;-40
2022/07/20 04:24:48;;;;;;;;;;;;;;;;;;5076396;28;19905;-41
2022/07/20 04:27:13;;;;;;;;;;;;;;;;;;5076117;28;20367;-41
2022/07/20 04:29:38;;;;;;;;;;;;;;;;;;5075986;28;19947;-42
2022/07/20 04:32:03;;;;;;;;;;;;;;;;;;5076034;28;19913;-40
2022/07/20 04:34:28;;;;;;;;;;;;;;;;;;5075720;28;19905;-40
2022/07/20 04:36:54;;;;;;;;;;;;;;;;;;5076034;28;19916;-41
2022/07/20 04:39:19;;;;;;;;;;;;;;;;;;5075836;28;19955;-41
2022/07/20 04:41:44;;;;;;;;;;;;;;;;;;5075835;28;19987;-41
2022/07/20 04:44:09;;;;;;;;;;;;;;;;;;5075942;28;19908;-40
2022/07/20 04:46:34;;;;;;;;;;;;;;;;;;5075960;28;19947;-40
2022/07/20 04:48:59;;;;;;;;;;;;;;;;;;5075532;28;19909;-40
2022/07/20 04:51:24;;;;;;;;;;;;;;;;;;5075028;28;20394;-41
2022/07/20 04:53:49;;;;;;;;;;;;;;;;;;5075569;28;19916;-42
2022/07/20 04:56:15;;;;;;;;;;;;;;;;;;5075584;28;19951;-40
2022/07/20 04:58:40;;;;;;;;;;;;;;;;;;5075503;28;19913;-41
2022/07/20 05:01:05;;;;;;;;;;;;;;;;;;5075461;28;19909;-41
2022/07/20 05:03:31;;;;;;;;;;;;;;;;;;5075894;28;19916;-41
2022/07/20 05:05:56;;;;;;;;;;;;;;;;;;5075312;28;19920;-40
2022/07/20 05:08:21;;;;;;;;;;;;;;;;;;5075265;28;19909;-40
2022/07/20 05:10:46;;;;;;;;;;;;;;;;;;5075448;28;19913;-41
2022/07/20 05:13:11;;;;;;;;;;;;;;;;;;5075378;28;20374;-41
2022/07/20 05:15:36;;;;;;;;;;;;;;;;;;5075168;28;19913;-40
2022/07/20 05:18:01;;;;;;;;;;;;;;;;;;5075261;28;19923;-41
2022/07/20 05:20:26;;;;;;;;;;;;;;;;;;5075205;28;19916;-40
2022/07/20 05:22:51;;;;;;;;;;;;;;;;;;5075244;28;19961;-41
2022/07/20 05:25:16;;;;;;;;;;;;;;;;;;5087401;28;19908;-41
2022/07/20 05:27:42;;;;;;;;;;;;;;;;;;5091487;28;20384;-40
2022/07/20 05:30:07;;;;;;;;;;;;;;;;;;5078150;28;19932;-40
2022/07/20 05:32:32;;;;;;;;;;;;;;;;;;5080187;28;19917;-41
2022/07/20 05:34:57;;;;;;;;;;;;;;;;;;5083954;28;19920;-42
2022/07/20 05:37:22;;;;;;;;;;;;;;;;;;5089590;28;19928;-40
2022/07/20 05:39:47;;;;;;;;;;;;;;;;;;5089196;28;19919;-40
2022/07/20 05:42:12;;;;;;;;;;;;;;;;;;5089376;28;19908;-40
2022/07/20 05:44:37;;;;;;;;;;;;;;;;;;5087234;28;19912;-41
2022/07/20 05:47:02;;;;;;;;;;;;;;;;;;5079512;28;19920;-41
2022/07/20 05:49:27;;;;;;;;;;;;;;;;;;5091700;28;20375;-41
2022/07/20 05:51:53;;;;;;;;;;;;;;;;;;5084501;28;20283;-41
2022/07/20 05:54:18;;;;;;;;;;;;;;;;;;5090879;28;20364;-40
2022/07/20 05:56:43;;;;;;;;;;;;;;;;;;5092116;28;19912;-40
2022/07/20 05:59:08;;;;;;;;;;;;;;;;;;5092036;28;19951;-40
2022/07/20 06:01:34;;;;;;;;;;;;;;;;;;5078747;28;19986;-40
2022/07/20 06:03:59;;;;;;;;;;;;;;;;;;5078270;28;20007;-41
2022/07/20 06:06:24;;;;;;;;;;;;;;;;;;5086763;28;19913;-42
2022/07/20 06:08:50;;;;;;;;;;;;;;;;;;5085327;28;20356;-41
2022/07/20 06:11:15;;;;;;;;;;;;;;;;;;5090068;28;20005;-41
2022/07/20 06:13:40;;;;;;;;;;;;;;;;;;5096911;28;20011;-40
2022/07/20 06:16:05;;;;;;;;;;;;;;;;;;5095222;28;19919;-40
2022/07/20 06:18:30;;;;;;;;;;;;;;;;;;5091509;28;19912;-41
2022/07/20 06:20:55;;;;;;;;;;;;;;;;;;5088157;28;19958;-41
2022/07/20 06:23:20;;;;;;;;;;;;;;;;;;5091311;28;19920;-40
2022/07/20 06:25:45;;;;;;;;;;;;;;;;;;5090055;28;19951;-41
2022/07/20 06:28:11;;;;;;;;;;;;;;;;;;5084149;28;19927;-41
2022/07/20 06:30:36;;;;;;;;;;;;;;;;;;5083911;28;19920;-41
2022/07/20 06:33:01;;;;;;;;;;;;;;;;;;5080216;28;20047;-41
2022/07/20 06:35:26;;;;;;;;;;;;;;;;;;5095281;28;19912;-40
2022/07/20 06:37:51;;;;;;;;;;;;;;;;;;5090614;28;19912;-40
2022/07/20 06:40:16;;;;;;;;;;;;;;;;;;5083953;28;19916;-41
2022/07/20 06:42:41;;;;;;;;;;;;;;;;;;5080999;28;20350;-41
2022/07/20 06:45:07;;;;;;;;;;;;;;;;;;5081952;28;19945;-42
2022/07/20 06:47:32;;;;;;;;;;;;;;;;;;5088063;28;20004;-41
2022/07/20 06:49:57;;;;;;;;;;;;;;;;;;5085256;28;19925;-41
2022/07/20 06:52:22;;;;;;;;;;;;;;;;;;5081632;28;19959;-41
2022/07/20 06:54:47;;;;;;;;;;;;;;;;;;5086977;28;19920;-41
2022/07/20 06:57:13;;;;;;;;;;;;;;;;;;5085137;28;19913;-41
2022/07/20 06:59:38;;;;;;;;;;;;;;;;;;5083089;28;19920;-41
2022/07/20 07:02:03;;;;;;;;;;;;;;;;;;5082206;28;19931;-40
2022/07/20 07:04:28;;;;;;;;;;;;;;;;;;5070234;28;19916;-41
2022/07/20 07:06:54;;;;;;;;;;;;;;;;;;5084317;28;19912;-41
2022/07/20 07:09:19;;;;;;;;;;;;;;;;;;5085864;28;19921;-41
2022/07/20 07:11:44;;;;;;;;;;;;;;;;;;5081575;28;19935;-41
2022/07/20 07:14:10;;;;;;;;;;;;;;;;;;5083735;28;20002;-41
2022/07/20 07:16:35;;;;;;;;;;;;;;;;;;5073020;28;19920;-41
2022/07/20 07:19:00;;;;;;;;;;;;;;;;;;5085970;28;19926;-41
2022/07/20 07:21:25;;;;;;;;;;;;;;;;;;5086792;28;20002;-41
2022/07/20 07:23:50;;;;;;;;;;;;;;;;;;5080323;28;19923;-41
2022/07/20 07:26:15;;;;;;;;;;;;;;;;;;5082353;28;19913;-41
2022/07/20 07:28:40;;;;;;;;;;;;;;;;;;5088019;28;19970;-41
2022/07/20 07:31:05;;;;;;;;;;;;;;;;;;5081656;28;19920;-41
2022/07/20 07:33:31;;;;;;;;;;;;;;;;;;5081089;28;19920;-42
2022/07/20 07:35:56;;;;;;;;;;;;;;;;;;5084343;28;19920;-41
2022/07/20 07:38:21;;;;;;;;;;;;;;;;;;5083449;28;19920;-40
2022/07/20 07:40:46;;;;;;;;;;;;;;;;;;5075326;28;19923;-42
2022/07/20 07:43:11;;;;;;;;;;;;;;;;;;5078514;28;20003;-41
2022/07/20 07:45:36;;;;;;;;;;;;;;;;;;5075884;28;19923;-42
2022/07/20 07:48:01;;;;;;;;;;;;;;;;;;5085760;28;19956;-42
2022/07/20 07:50:26;;;;;;;;;;;;;;;;;;5074985;28;19924;-41
2022/07/20 07:52:52;;;;;;;;;;;;;;;;;;5078732;28;19920;-41
2022/07/20 07:55:17;;;;;;;;;;;;;;;;;;5084536;28;19916;-41
2022/07/20 07:57:42;;;;;;;;;;;;;;;;;;5082359;28;19964;-41
2022/07/20 08:00:08;;;;;;;;;;;;;;;;;;5087968;28;20304;-43
2022/07/20 08:02:33;;;;;;;;;;;;;;;;;;5086683;28;20297;-41
2022/07/20 08:04:58;;;;;;;;;;;;;;;;;;5080202;28;19920;-42
2022/07/20 08:07:23;;;;;;;;;;;;;;;;;;5082317;28;20014;-42
2022/07/20 08:09:48;;;;;;;;;;;;;;;;;;5078939;28;19916;-42
2022/07/20 08:12:13;;;;;;;;;;;;;;;;;;5082086;28;20010;-41
2022/07/20 08:14:38;;;;;;;;;;;;;;;;;;5080055;28;19962;-41
2022/07/20 08:17:04;;;;;;;;;;;;;;;;;;5086143;28;20286;-42
2022/07/20 08:19:29;;;;;;;;;;;;;;;;;;5089249;28;19923;-41
2022/07/20 08:21:54;;;;;;;;;;;;;;;;;;5082173;28;19916;-41
2022/07/20 08:24:19;;;;;;;;;;;;;;;;;;5086704;28;20393;-41
2022/07/20 08:26:44;;;;;;;;;;;;;;;;;;5085744;28;20021;-43
2022/07/20 08:29:09;;;;;;;;;;;;;;;;;;5092752;28;19923;-41
2022/07/20 08:31:34;;;;;;;;;;;;;;;;;;5081138;28;19918;-42
2022/07/20 08:33:59;;;;;;;;;;;;;;;;;;5081970;28;19927;-42
2022/07/20 08:36:24;;;;;;;;;;;;;;;;;;5080656;28;19922;-42
2022/07/20 08:38:49;;;;;;;;;;;;;;;;;;5083585;28;20355;-41
2022/07/20 08:41:14;;;;;;;;;;;;;;;;;;5087656;28;20433;-42
2022/07/20 08:43:40;;;;;;;;;;;;;;;;;;5080897;28;20278;-41
2022/07/20 08:46:05;;;;;;;;;;;;;;;;;;5088925;28;19934;-42
2022/07/20 08:48:30;;;;;;;;;;;;;;;;;;5083248;28;19944;-42
2022/07/20 08:50:55;;;;;;;;;;;;;;;;;;5082425;28;19994;-41
2022/07/20 08:53:20;;;;;;;;;;;;;;;;;;5073757;28;19926;-41
2022/07/20 08:55:45;;;;;;;;;;;;;;;;;;5082044;28;19921;-42
2022/07/20 08:58:10;;;;;;;;;;;;;;;;;;5080828;28;20336;-41
2022/07/20 09:00:36;;;;;;;;;;;;;;;;;;5083110;28;20003;-41
2022/07/20 09:03:01;;;;;;;;;;;;;;;;;;5078432;28;19912;-41
2022/07/20 09:05:28;;;;;;;;;;;;;;;;;;5080511;28;19912;-41
2022/07/20 09:07:53;;;;;;;;;;;;;;;;;;5077559;28;19919;-41
2022/07/20 09:10:18;;;;;;;;;;;;;;;;;;5083832;28;20022;-41
2022/07/20 09:12:43;;;;;;;;;;;;;;;;;;5086339;28;20381;-41
2022/07/20 09:15:08;;;;;;;;;;;;;;;;;;5082534;28;19977;-41
2022/07/20 09:17:33;;;;;;;;;;;;;;;;;;5077622;28;20050;-40
2022/07/20 09:19:59;;;;;;;;;;;;;;;;;;5082888;28;19957;-41
2022/07/20 09:22:24;;;;;;;;;;;;;;;;;;5084379;28;20389;-41
2022/07/20 09:24:49;;;;;;;;;;;;;;;;;;5065615;28;19927;-41
2022/07/20 09:27:14;;;;;;;;;;;;;;;;;;5076686;28;19924;-41
2022/07/20 09:29:39;;;;;;;;;;;;;;;;;;5085122;28;19925;-41
2022/07/20 09:32:04;;;;;;;;;;;;;;;;;;5074419;28;19920;-41
2022/07/20 09:34:29;;;;;;;;;;;;;;;;;;5074632;28;19917;-41
2022/07/20 09:36:54;;;;;;;;;;;;;;;;;;5077300;28;19916;-41
2022/07/20 09:39:19;;;;;;;;;;;;;;;;;;5093541;28;19928;-41
2022/07/20 09:41:45;;;;;;;;;;;;;;;;;;5080020;28;20370;-41
2022/07/20 09:44:10;;;;;;;;;;;;;;;;;;5083472;28;19938;-40
2022/07/20 09:46:36;;;;;;;;;;;;;;;;;;5085968;28;19916;-40
2022/07/20 09:49:01;;;;;;;;;;;;;;;;;;5073722;28;19917;-41
2022/07/20 09:51:26;;;;;;;;;;;;;;;;;;5074512;28;19916;-41
2022/07/20 09:53:51;;;;;;;;;;;;;;;;;;5074560;28;20490;-41
2022/07/20 09:56:16;;;;;;;;;;;;;;;;;;5076126;28;19920;-41
2022/07/20 09:58:41;;;;;;;;;;;;;;;;;;5076979;28;19916;-42
2022/07/20 10:01:06;;;;;;;;;;;;;;;;;;5079552;28;20300;-41
2022/07/20 10:03:31;;;;;;;;;;;;;;;;;;5074035;28;19973;-41
2022/07/20 10:05:56;;;;;;;;;;;;;;;;;;5082046;28;19924;-42
2022/07/20 10:08:22;;;;;;;;;;;;;;;;;;5073434;28;19916;-41
2022/07/20 10:10:47;;;;;;;;;;;;;;;;;;5080914;28;19924;-41
2022/07/20 10:13:12;;;;;;;;;;;;;;;;;;5084615;28;19925;-42
2022/07/20 10:15:37;;;;;;;;;;;;;;;;;;5081512;28;19916;-42
2022/07/20 10:18:02;;;;;;;;;;;;;;;;;;5083781;28;19977;-42
2022/07/20 10:20:27;;;;;;;;;;;;;;;;;;5077719;28;19920;-41
2022/07/20 10:22:52;;;;;;;;;;;;;;;;;;5077188;28;19920;-41
2022/07/20 10:25:17;;;;;;;;;;;;;;;;;;5078172;28;19920;-41
2022/07/20 10:27:43;;;;;;;;;;;;;;;;;;5075353;28;19916;-45
2022/07/20 10:30:08;;;;;;;;;;;;;;;;;;5077797;28;19955;-41
2022/07/20 10:32:33;;;;;;;;;;;;;;;;;;5081705;28;19991;-42
2022/07/20 10:34:58;;;;;;;;;;;;;;;;;;5073883;28;19927;-42
2022/07/20 10:37:23;;;;;;;;;;;;;;;;;;5072755;28;19911;-43
2022/07/20 10:39:48;;;;;;;;;;;;;;;;;;5068304;28;19920;-42
2022/07/20 10:42:13;;;;;;;;;;;;;;;;;;5073867;28;19951;-43
2022/07/20 10:44:39;;;;;;;;;;;;;;;;;;5086208;28;19916;-43
2022/07/20 10:47:04;;;;;;;;;;;;;;;;;;5076572;28;19960;-44
2022/07/20 10:49:29;;;;;;;;;;;;;;;;;;5087636;28;19966;-43
2022/07/20 10:51:54;;;;;;;;;;;;;;;;;;5079035;28;19938;-44
2022/07/20 10:54:19;;;;;;;;;;;;;;;;;;5083322;28;19916;-42
2022/07/20 10:56:44;;;;;;;;;;;;;;;;;;5084036;28;20641;-43
2022/07/20 10:59:09;;;;;;;;;;;;;;;;;;5091298;28;19988;-43
2022/07/20 11:01:34;;;;;;;;;;;;;;;;;;5077697;28;19955;-44
2022/07/20 11:03:59;;;;;;;;;;;;;;;;;;5081819;28;19920;-43
2022/07/20 11:06:25;;;;;;;;;;;;;;;;;;5084724;28;20275;-43
2022/07/20 11:08:50;;;;;;;;;;;;;;;;;;5073127;28;19916;-43
2022/07/20 11:11:15;;;;;;;;;;;;;;;;;;5085561;28;19943;-43
2022/07/20 11:13:40;;;;;;;;;;;;;;;;;;5087174;28;19936;-44
2022/07/20 11:16:05;;;;;;;;;;;;;;;;;;5087078;28;19974;-44
2022/07/20 11:18:30;;;;;;;;;;;;;;;;;;5085238;28;19946;-43
2022/07/20 11:20:55;;;;;;;;;;;;;;;;;;5086006;28;20016;-43
2022/07/20 11:23:21;;;;;;;;;;;;;;;;;;5083032;28;19913;-43
2022/07/20 11:25:46;;;;;;;;;;;;;;;;;;5082586;28;19927;-43
2022/07/20 11:28:11;;;;;;;;;;;;;;;;;;5075952;28;20424;-43
2022/07/20 11:30:36;;;;;;;;;;;;;;;;;;5092610;28;19929;-43
2022/07/20 11:33:02;;;;;;;;;;;;;;;;;;5084788;28;20359;-43
2022/07/20 11:35:27;;;;;;;;;;;;;;;;;;5092396;28;19918;-44
2022/07/20 11:37:52;;;;;;;;;;;;;;;;;;5085365;28;19939;-43
2022/07/20 11:40:17;;;;;;;;;;;;;;;;;;5076337;28;20004;-42
2022/07/20 11:42:43;;;;;;;;;;;;;;;;;;5084932;28;19935;-41
2022/07/20 11:45:08;;;;;;;;;;;;;;;;;;5086010;28;19916;-40
2022/07/20 11:47:33;;;;;;;;;;;;;;;;;;5082505;28;19916;-43
2022/07/20 11:49:58;;;;;;;;;;;;;;;;;;5083307;28;19924;-42
2022/07/20 11:52:23;;;;;;;;;;;;;;;;;;5082809;28;20306;-42
2022/07/20 11:54:48;;;;;;;;;;;;;;;;;;5084093;28;19966;-42
2022/07/20 11:57:13;;;;;;;;;;;;;;;;;;5083873;28;19920;-43
2022/07/20 11:59:38;;;;;;;;;;;;;;;;;;5089629;28;19923;-42
2022/07/20 12:02:03;;;;;;;;;;;;;;;;;;5084790;28;19995;-42
2022/07/20 12:04:28;;;;;;;;;;;;;;;;;;5090686;28;19924;-42
2022/07/20 12:06:54;;;;;;;;;;;;;;;;;;5091907;28;19967;-42
2022/07/20 12:09:20;;;;;;;;;;;;;;;;;;5089689;28;19916;-42
2022/07/20 12:11:45;;;;;;;;;;;;;;;;;;5090499;28;19942;-42
2022/07/20 12:14:10;;;;;;;;;;;;;;;;;;5084847;28;19912;-44
2022/07/20 12:16:35;;;;;;;;;;;;;;;;;;5089286;28;19923;-41
2022/07/20 12:19:00;;;;;;;;;;;;;;;;;;5095888;28;19920;-43
2022/07/20 12:21:25;;;;;;;;;;;;;;;;;;5081898;28;19929;-42
2022/07/20 12:23:50;;;;;;;;;;;;;;;;;;5085257;28;19958;-41
2022/07/20 12:26:15;;;;;;;;;;;;;;;;;;5087249;28;19943;-42
2022/07/20 12:28:40;;;;;;;;;;;;;;;;;;5086409;28;20007;-41
2022/07/20 12:31:08;;;;;;;;;;;;;;;;;;5088490;28;19926;-42
2022/07/20 12:33:33;;;;;;;;;;;;;;;;;;5089734;28;19915;-42
2022/07/20 12:35:58;;;;;;;;;;;;;;;;;;5088718;28;20268;-41
2022/07/20 12:38:23;;;;;;;;;;;;;;;;;;5082748;28;19950;-41
2022/07/20 12:40:48;;;;;;;;;;;;;;;;;;5082948;28;19927;-42
2022/07/20 12:43:13;;;;;;;;;;;;;;;;;;5089530;28;19912;-42
2022/07/20 12:45:39;;;;;;;;;;;;;;;;;;5080729;28;20010;-41
2022/07/20 12:48:06;;;;;;;;;;;;;;;;;;5082455;28;20011;-42
2022/07/20 12:50:31;;;;;;;;;;;;;;;;;;5078615;28;20415;-42
2022/07/20 12:52:56;;;;;;;;;;;;;;;;;;5091913;28;19966;-42
2022/07/20 12:55:21;;;;;;;;;;;;;;;;;;5090087;28;20010;-41
2022/07/20 12:57:47;;;;;;;;;;;;;;;;;;5078381;28;20050;-42
2022/07/20 13:00:12;;;;;;;;;;;;;;;;;;5081861;28;19923;-42
2022/07/20 13:02:37;;;;;;;;;;;;;;;;;;5081031;28;19974;-42
2022/07/20 13:05:03;;;;;;;;;;;;;;;;;;5082985;28;19912;-41
2022/07/20 13:07:28;;;;;;;;;;;;;;;;;;5077100;28;20412;-41
2022/07/20 13:09:53;;;;;;;;;;;;;;;;;;5084984;28;19924;-42
2022/07/20 13:12:19;;;;;;;;;;;;;;;;;;5085529;28;20332;-42
2022/07/20 13:14:44;;;;;;;;;;;;;;;;;;5093624;28;19965;-41
2022/07/20 13:17:09;;;;;;;;;;;;;;;;;;5089058;28;19912;-42
2022/07/20 13:19:34;;;;;;;;;;;;;;;;;;5080459;28;20324;-42
2022/07/20 13:21:59;;;;;;;;;;;;;;;;;;5078543;28;19908;-41
2022/07/20 13:24:25;;;;;;;;;;;;;;;;;;5082562;28;19926;-41
2022/07/20 13:26:50;;;;;;;;;;;;;;;;;;5081667;28;19918;-41
2022/07/20 13:29:15;;;;;;;;;;;;;;;;;;5078039;22;21036;-41
2022/07/20 13:31:42;;;;;;;;;;;;;;;;;;5051540;28;20413;-42
2022/07/20 13:34:07;;;;;;;;;;;;;;;;;;5051081;28;19974;-43
2022/07/20 13:36:32;;;;;;;;;;;;;;;;;;5038738;28;19970;-42
2022/07/20 13:38:57;;;;;;;;;;;;;;;;;;5043234;28;19999;-41
2022/07/20 13:41:22;;;;;;;;;;;;;;;;;;5037953;28;19917;-41
2022/07/20 13:43:47;;;;;;;;;;;;;;;;;;5043371;28;19959;-42
2022/07/20 13:46:12;;;;;;;;;;;;;;;;;;5045030;28;19920;-41
2022/07/20 13:48:37;;;;;;;;;;;;;;;;;;5044610;28;19966;-41
2022/07/20 13:51:03;;;;;;;;;;;;;;;;;;5052328;28;19916;-42
2022/07/20 13:53:28;;;;;;;;;;;;;;;;;;5064133;28;19913;-41
2022/07/20 13:55:53;;;;;;;;;;;;;;;;;;5048146;28;19920;-41
2022/07/20 13:58:19;;;;;;;;;;;;;;;;;;5051599;28;19913;-42
2022/07/20 14:00:44;;;;;;;;;;;;;;;;;;5048416;28;19967;-42
2022/07/20 14:03:09;;;;;;;;;;;;;;;;;;5053807;28;20360;-41
2022/07/20 14:05:34;;;;;;;;;;;;;;;;;;5051699;28;20027;-42
2022/07/20 14:07:59;;;;;;;;;;;;;;;;;;5037360;28;20277;-41
2022/07/20 14:10:24;;;;;;;;;;;;;;;;;;5041198;28;20440;-42
2022/07/20 14:12:49;;;;;;;;;;;;;;;;;;5049934;28;19913;-40
2022/07/20 14:15:15;;;;;;;;;;;;;;;;;;5039394;28;20014;-42
2022/07/20 14:17:40;;;;;;;;;;;;;;;;;;5043767;28;19935;-41
2022/07/20 14:20:05;;;;;;;;;;;;;;;;;;5046079;28;20314;-41
2022/07/20 14:22:30;;;;;;;;;;;;;;;;;;5042861;28;19951;-41
2022/07/20 14:24:55;;;;;;;;;;;;;;;;;;5044759;28;19924;-41
2022/07/20 14:27:20;;;;;;;;;;;;;;;;;;5046050;28;19920;-42
2022/07/20 14:29:45;;;;;;;;;;;;;;;;;;5039379;28;19921;-41
2022/07/20 14:32:10;;;;;;;;;;;;;;;;;;5045124;28;20245;-42
2022/07/20 14:34:36;;;;;;;;;;;;;;;;;;5048451;28;19964;-42
2022/07/20 14:37:01;;;;;;;;;;;;;;;;;;5047555;28;20011;-42
2022/07/20 14:39:26;;;;;;;;;;;;;;;;;;5050268;28;19920;-41
2022/07/20 14:41:51;;;;;;;;;;;;;;;;;;5049087;28;19923;-41
2022/07/20 14:44:16;;;;;;;;;;;;;;;;;;5049424;28;22229;-42
2022/07/20 14:46:41;;;;;;;;;;;;;;;;;;5051296;28;20011;-41
2022/07/20 14:49:06;;;;;;;;;;;;;;;;;;5045062;28;20003;-41
2022/07/20 14:51:31;;;;;;;;;;;;;;;;;;5042977;28;19921;-41
2022/07/20 14:53:57;;;;;;;;;;;;;;;;;;5046454;28;19913;-41
2022/07/20 14:56:22;;;;;;;;;;;;;;;;;;5039809;28;19917;-41
2022/07/20 14:58:47;;;;;;;;;;;;;;;;;;5041842;28;19917;-41
2022/07/20 15:01:12;;;;;;;;;;;;;;;;;;5042809;28;19920;-41
2022/07/20 15:03:37;;;;;;;;;;;;;;;;;;5046132;28;20334;-42
2022/07/20 15:06:02;;;;;;;;;;;;;;;;;;5045411;28;19990;-42
2022/07/20 15:08:27;;;;;;;;;;;;;;;;;;5039089;28;20007;-41
2022/07/20 15:10:57;;;;;;;;;;;;;;;;;;5043172;28;20009;-41
2022/07/20 15:13:22;;;;;;;;;;;;;;;;;;5040949;28;20423;-42
2022/07/20 15:15:47;;;;;;;;;;;;;;;;;;5038006;28;19992;-41
2022/07/20 15:18:12;;;;;;;;;;;;;;;;;;5042783;28;20417;-41
2022/07/20 15:20:37;;;;;;;;;;;;;;;;;;5044933;28;19912;-41
2022/07/20 15:23:03;;;;;;;;;;;;;;;;;;5052829;28;19924;-42
2022/07/20 15:25:28;;;;;;;;;;;;;;;;;;5053425;28;19913;-42
2022/07/20 15:27:53;;;;;;;;;;;;;;;;;;5052389;28;19913;-41
2022/07/20 15:30:18;;;;;;;;;;;;;;;;;;5048547;28;19925;-41
2022/07/20 15:32:43;;;;;;;;;;;;;;;;;;5052554;28;19913;-42
2022/07/20 15:35:08;;;;;;;;;;;;;;;;;;5053157;28;19913;-42
2022/07/20 15:37:33;;;;;;;;;;;;;;;;;;5053061;28;19913;-41
2022/07/20 15:39:58;;;;;;;;;;;;;;;;;;5051572;28;20015;-42
2022/07/20 15:42:24;;;;;;;;;;;;;;;;;;5047466;28;20367;-41
2022/07/20 15:44:49;;;;;;;;;;;;;;;;;;5046728;28;19909;-41
2022/07/20 15:47:14;;;;;;;;;;;;;;;;;;5042883;28;20262;-40
2022/07/20 15:49:39;;;;;;;;;;;;;;;;;;5043789;28;20338;-41
2022/07/20 15:52:04;;;;;;;;;;;;;;;;;;5047787;28;19969;-41
2022/07/20 15:54:29;;;;;;;;;;;;;;;;;;5045934;28;19966;-41
2022/07/20 15:59:38;;;;;;;;;;;;;;;;;;5060423;28;19923;-41
2022/07/20 16:02:03;;;;;;;;;;;;;;;;;;5053687;28;19912;-42
2022/07/20 16:04:28;;;;;;;;;;;;;;;;;;5055882;28;19921;-41
2022/07/20 16:06:53;;;;;;;;;;;;;;;;;;5055378;28;19913;-41
2022/07/20 16:09:19;;;;;;;;;;;;;;;;;;5055356;28;20267;-42
2022/07/20 16:11:44;;;;;;;;;;;;;;;;;;5055127;28;19924;-42
2022/07/20 16:14:09;;;;;;;;;;;;;;;;;;5054631;28;19913;-43
2022/07/20 16:16:34;;;;;;;;;;;;;;;;;;5056142;28;20011;-43
2022/07/20 16:18:59;;;;;;;;;;;;;;;;;;5053836;28;19919;-41
2022/07/20 16:21:24;;;;;;;;;;;;;;;;;;5050963;28;19913;-43
2022/07/20 16:23:49;;;;;;;;;;;;;;;;;;5042533;28;19912;-42
2022/07/20 16:26:16;;;;;;;;;;;;;;;;;;5054404;28;19916;-43
2022/07/20 16:28:41;;;;;;;;;;;;;;;;;;5053912;28;19913;-41
2022/07/20 16:31:06;;;;;;;;;;;;;;;;;;5055898;28;19924;-45
2022/07/20 16:33:31;;;;;;;;;;;;;;;;;;5052396;28;20392;-43
2022/07/20 16:35:56;;;;;;;;;;;;;;;;;;5053111;28;19975;-43